Time;durP1;ratioP1;P1;durP2;ratioP2;P2;SDS_P1;SDS_P2;PMS_P1;PMS_P2;Temp;Humidity;BMP_temperature;BMP_pressure;BME280_temperature;BME280_humidity;BME280_pressure;Samples;Min_cycle;Max_cycle;Signal;HPM_P1;HPM_P2
2022/05/04 00:01:52;;;;;;;15.30;3.28;;;9.00;99.90;;;;;;4989521;28;20056;-70
2022/05/04 00:04:18;;;;;;;12.82;3.00;;;9.00;99.90;;;;;;4989543;28;20053;-70
2022/05/04 00:06:43;;;;;;;9.40;2.80;;;9.00;99.90;;;;;;4984706;28;20056;-70
2022/05/04 00:09:09;;;;;;;16.38;3.72;;;9.00;99.90;;;;;;4975740;28;20053;-70
2022/05/04 00:11:35;;;;;;;11.43;3.40;;;9.00;99.90;;;;;;4970372;28;20138;-70
2022/05/04 00:14:01;;;;;;;13.70;3.08;;;8.90;99.90;;;;;;4986852;28;20052;-70
2022/05/04 00:16:26;;;;;;;13.57;3.60;;;9.00;99.90;;;;;;4969984;28;20073;-70
2022/05/04 00:18:52;;;;;;;11.45;3.33;;;9.00;99.90;;;;;;4988685;28;20046;-70
2022/05/04 00:21:18;;;;;;;12.60;3.42;;;8.90;99.90;;;;;;4987220;28;20045;-70
2022/05/04 00:23:44;;;;;;;21.73;3.88;;;8.90;99.90;;;;;;4986033;28;20792;-70
2022/05/04 00:26:09;;;;;;;9.60;2.72;;;8.90;99.90;;;;;;4986680;28;20054;-70
2022/05/04 00:28:35;;;;;;;13.38;3.38;;;8.90;99.90;;;;;;4987754;28;20514;-70
2022/05/04 00:31:01;;;;;;;13.45;3.40;;;8.90;99.90;;;;;;4970743;28;20083;-70
2022/05/04 00:33:27;;;;;;;10.23;2.80;;;9.00;99.90;;;;;;4986909;28;20034;-70
2022/05/04 00:35:52;;;;;;;13.55;3.00;;;8.90;99.90;;;;;;4966538;28;20084;-70
2022/05/04 00:38:18;;;;;;;15.63;3.40;;;8.90;99.90;;;;;;4984562;28;20329;-70
2022/05/04 00:40:44;;;;;;;20.92;3.58;;;8.90;99.90;;;;;;4985830;28;20038;-70
2022/05/04 00:43:24;;;;;;;10.65;3.65;;;9.00;99.90;;;;;;4988852;28;20058;-70
2022/05/04 00:45:50;;;;;;;14.30;3.33;;;9.10;99.90;;;;;;4984864;28;20041;-70
2022/05/04 00:48:16;;;;;;;16.13;3.53;;;9.00;99.90;;;;;;4970888;28;20077;-70
2022/05/04 00:50:44;;;;;;;11.80;3.67;;;8.90;99.90;;;;;;4968877;28;20056;-70
2022/05/04 00:53:10;;;;;;;24.88;3.58;;;9.00;99.90;;;;;;4974619;28;20057;-70
2022/05/04 00:55:36;;;;;;;31.33;3.85;;;9.00;99.90;;;;;;4965117;28;20055;-70
2022/05/04 01:00:48;;;;;;;16.45;3.53;;;8.90;99.90;;;;;;4982969;28;20050;-70
2022/05/04 01:03:14;;;;;;;10.73;2.90;;;8.90;99.90;;;;;;4969034;28;20144;-70
2022/05/04 01:05:41;;;;;;;13.57;3.20;;;8.90;99.90;;;;;;4970127;28;20050;-70
2022/05/04 01:08:07;;;;;;;17.30;3.65;;;8.90;99.90;;;;;;4990004;28;20074;-70
2022/05/04 01:10:33;;;;;;;11.93;2.92;;;8.90;99.90;;;;;;4981798;28;20051;-70
2022/05/04 01:12:59;;;;;;;10.98;2.95;;;8.90;99.90;;;;;;4993439;28;20103;-70
2022/05/04 01:15:24;;;;;;;9.93;3.10;;;8.80;99.90;;;;;;4992170;28;20060;-70
2022/05/04 01:17:51;;;;;;;13.88;3.40;;;8.70;99.90;;;;;;4971869;28;20050;-70
2022/05/04 01:20:18;;;;;;;14.48;3.45;;;8.70;99.90;;;;;;4990704;28;20046;-70
2022/05/04 01:22:44;;;;;;;9.20;2.97;;;8.70;99.90;;;;;;4988457;28;20045;-70
2022/05/04 01:25:11;;;;;;;11.90;3.15;;;8.70;99.90;;;;;;4974714;28;20045;-70
2022/05/04 01:27:38;;;;;;;11.43;3.35;;;8.80;99.90;;;;;;4989613;28;20077;-70
2022/05/04 01:30:04;;;;;;;14.10;3.35;;;8.90;99.90;;;;;;4991059;28;20702;-70
2022/05/04 01:32:30;;;;;;;15.20;3.80;;;8.90;99.90;;;;;;4989510;28;20542;-70
2022/05/04 01:34:56;;;;;;;10.30;3.03;;;8.90;99.90;;;;;;4991909;28;20192;-70
2022/05/04 01:37:22;;;;;;;12.60;3.22;;;8.70;99.90;;;;;;4988876;28;20413;-70
2022/05/04 01:39:47;;;;;;;11.73;2.88;;;8.60;99.90;;;;;;4989388;28;20052;-70
2022/05/04 01:42:13;;;;;;;10.15;2.78;;;8.70;99.90;;;;;;4974105;28;20659;-70
2022/05/04 01:44:40;;;;;;;8.15;2.90;;;8.70;99.90;;;;;;4990311;28;20038;-70
2022/05/04 01:47:07;;;;;;;15.63;3.42;;;8.60;99.90;;;;;;4989798;28;20053;-70
2022/05/04 01:49:33;;;;;;;10.50;3.42;;;8.60;99.90;;;;;;4972722;28;20104;-70
2022/05/04 01:51:59;;;;;;;11.13;3.65;;;8.70;99.90;;;;;;4956212;28;20046;-70
2022/05/04 01:54:26;;;;;;;9.48;2.80;;;8.70;99.90;;;;;;4989064;28;20050;-71
2022/05/04 01:56:51;;;;;;;11.88;3.45;;;8.60;99.90;;;;;;4990279;28;20046;-70
2022/05/04 01:59:17;;;;;;;13.30;3.40;;;8.50;99.90;;;;;;4991238;28;20041;-70
2022/05/04 02:01:43;;;;;;;13.38;3.53;;;8.50;99.90;;;;;;4990431;28;20169;-70
2022/05/04 02:04:09;;;;;;;16.55;3.75;;;8.50;99.90;;;;;;4991361;28;20088;-70
2022/05/04 02:06:38;;;;;;;18.67;3.83;;;8.50;99.90;;;;;;4991097;28;20115;-70
2022/05/04 02:09:04;;;;;;;12.45;3.25;;;8.60;99.90;;;;;;4987224;28;20054;-69
2022/05/04 02:11:35;;;;;;;12.20;2.90;;;8.50;99.90;;;;;;4998397;28;20491;-70
2022/05/04 02:14:01;;;;;;;15.15;3.20;;;8.60;99.90;;;;;;4992477;28;20115;-70
2022/05/04 02:16:28;;;;;;;12.55;3.28;;;8.60;99.90;;;;;;4974278;28;20050;-70
2022/05/04 02:18:55;;;;;;;14.30;3.20;;;8.60;99.90;;;;;;4989963;28;20066;-70
2022/05/04 02:21:20;;;;;;;8.35;2.65;;;8.60;99.90;;;;;;4993777;28;20495;-69
2022/05/04 02:23:46;;;;;;;15.60;3.55;;;8.60;99.90;;;;;;4991231;28;20056;-69
2022/05/04 02:26:12;;;;;;;11.65;3.60;;;8.60;99.90;;;;;;4996452;28;20108;-70
2022/05/04 02:28:38;;;;;;;12.48;2.92;;;8.60;99.90;;;;;;4969315;28;20092;-69
2022/05/04 02:31:03;;;;;;;14.43;3.38;;;8.60;99.90;;;;;;4974500;28;20152;-70
2022/05/04 02:33:29;;;;;;;14.75;3.42;;;8.60;99.90;;;;;;4989175;28;20526;-70
2022/05/04 02:38:40;;;;;;;16.40;3.75;;;8.50;99.90;;;;;;4989943;28;20136;-70
2022/05/04 02:41:06;;;;;;;17.88;3.75;;;8.60;99.90;;;;;;4990391;28;20105;-70
2022/05/04 02:43:32;;;;;;;13.13;3.10;;;8.50;99.90;;;;;;4972353;28;20061;-70
2022/05/04 02:46:10;;;;;;;13.63;3.90;;;8.60;99.90;;;;;;4990211;28;20045;-70
2022/05/04 02:48:36;;;;;;;12.63;3.67;;;8.60;99.90;;;;;;4986511;28;20050;-70
2022/05/04 02:51:02;;;;;;;11.82;3.35;;;8.50;99.90;;;;;;4977157;28;20776;-70
2022/05/04 02:53:27;;;;;;;17.85;4.10;;;8.50;99.90;;;;;;4974969;28;20050;-70
2022/05/04 02:55:53;;;;;;;14.98;3.63;;;8.50;99.90;;;;;;4991759;28;20079;-70
2022/05/04 02:58:19;;;;;;;11.32;3.28;;;8.50;99.90;;;;;;4971312;28;20045;-70
2022/05/04 03:00:44;;;;;;;13.02;3.63;;;8.30;99.90;;;;;;4970691;28;20057;-70
2022/05/04 03:03:10;;;;;;;21.98;3.70;;;8.10;99.90;;;;;;4971375;28;20050;-70
2022/05/04 03:05:36;;;;;;;23.58;4.38;;;8.30;99.90;;;;;;4987630;28;20050;-70
2022/05/04 03:08:02;;;;;;;28.80;4.15;;;8.30;99.90;;;;;;4989352;28;20048;-70
2022/05/04 03:10:28;;;;;;;18.05;3.42;;;8.40;99.90;;;;;;4989581;28;20053;-70
2022/05/04 03:12:54;;;;;;;14.77;3.65;;;8.30;99.90;;;;;;4988163;28;20057;-70
2022/05/04 03:15:20;;;;;;;11.48;3.42;;;8.30;99.90;;;;;;4990339;28;20057;-70
2022/05/04 03:17:45;;;;;;;13.63;3.42;;;8.30;99.90;;;;;;4970070;28;20048;-70
2022/05/04 03:20:12;;;;;;;21.17;4.03;;;8.20;99.90;;;;;;4969531;28;20116;-70
2022/05/04 03:22:38;;;;;;;22.42;3.80;;;8.20;99.90;;;;;;4986637;28;20658;-70
2022/05/04 03:25:08;;;;;;;20.40;3.33;;;8.20;99.90;;;;;;4989015;28;20495;-69
2022/05/04 03:27:35;;;;;;;12.48;3.20;;;8.30;99.90;;;;;;4987365;28;20041;-69
2022/05/04 03:30:01;;;;;;;15.93;4.25;;;8.20;99.90;;;;;;4970500;28;20053;-70
2022/05/04 03:32:26;;;;;;;10.80;3.47;;;8.20;99.90;;;;;;4972336;28;20698;-70
2022/05/04 03:34:52;;;;;;;13.15;3.30;;;8.30;99.90;;;;;;4988905;28;20156;-70
2022/05/04 03:37:40;;;;;;;15.73;3.92;;;8.20;99.90;;;;;;4988299;28;20104;-69
2022/05/04 03:40:07;;;;;;;17.98;4.05;;;8.20;99.90;;;;;;4971259;28;20041;-70
2022/05/04 03:42:33;;;;;;;24.10;4.03;;;8.10;99.90;;;;;;4972613;28;20046;-70
2022/05/04 03:44:58;;;;;;;18.05;3.83;;;8.20;99.90;;;;;;4987087;28;20048;-70
2022/05/04 03:47:24;;;;;;;20.17;4.15;;;8.10;99.90;;;;;;4989446;28;20057;-70
2022/05/04 03:49:50;;;;;;;23.45;3.83;;;8.00;99.90;;;;;;4987051;28;20084;-70
2022/05/04 03:52:16;;;;;;;9.00;3.05;;;8.00;99.90;;;;;;4989715;28;20734;-69
2022/05/04 03:54:41;;;;;;;13.23;3.40;;;7.90;99.90;;;;;;4976100;28;20463;-70
2022/05/04 03:57:07;;;;;;;22.02;4.50;;;7.90;99.90;;;;;;4988439;28;20152;-70
2022/05/04 03:59:33;;;;;;;25.77;4.38;;;8.00;99.90;;;;;;4990886;28;20132;-70
2022/05/04 04:01:58;;;;;;;19.15;3.72;;;8.00;99.90;;;;;;4988126;28;20054;-70
2022/05/04 04:04:24;;;;;;;30.63;5.50;;;8.00;99.90;;;;;;4988220;28;20042;-70
2022/05/04 04:06:50;;;;;;;39.78;5.13;;;8.00;99.90;;;;;;4991318;28;20427;-68
2022/05/04 04:09:16;;;;;;;24.50;4.13;;;8.10;99.90;;;;;;4976987;28;20530;-69
2022/05/04 04:11:42;;;;;;;22.85;3.72;;;8.00;99.90;;;;;;4969931;28;20514;-68
2022/05/04 04:14:09;;;;;;;13.60;3.70;;;8.00;99.90;;;;;;4971852;28;20135;-68
2022/05/04 04:16:35;;;;;;;11.32;3.15;;;8.00;99.90;;;;;;4989276;28;21015;-69
2022/05/04 04:19:01;;;;;;;14.93;3.67;;;8.00;99.90;;;;;;4985914;28;20053;-70
2022/05/04 04:24:11;;;;;;;;;;;7.90;99.90;;;;;;4987931;28;20093;-70
2022/05/04 04:26:40;;;;;;;15.25;3.38;;;8.00;99.90;;;;;;4989153;28;20547;-70
2022/05/04 04:29:06;;;;;;;11.50;3.35;;;7.90;99.90;;;;;;4991223;28;20046;-70
2022/05/04 04:31:31;;;;;;;13.30;3.50;;;7.90;99.90;;;;;;4990307;28;20128;-70
2022/05/04 04:33:57;;;;;;;12.77;3.17;;;8.10;99.90;;;;;;4989314;28;20051;-69
2022/05/04 04:36:23;;;;;;;16.67;4.20;;;8.10;99.90;;;;;;4970088;28;20049;-70
2022/05/04 04:38:48;;;;;;;14.40;3.28;;;8.20;99.90;;;;;;4973764;28;20447;-70
2022/05/04 04:41:14;;;;;;;17.58;3.40;;;8.20;99.90;;;;;;4992088;28;20057;-70
2022/05/04 04:43:40;;;;;;;24.05;5.25;;;8.10;99.90;;;;;;4992077;28;20078;-70
2022/05/04 04:46:15;;;;;;;9.60;3.13;;;8.40;99.90;;;;;;4972139;28;20045;-70
2022/05/04 04:48:41;;;;;;;8.35;3.13;;;8.50;99.90;;;;;;4989992;28;20128;-69
2022/05/04 04:51:06;;;;;;;8.65;3.17;;;8.50;99.90;;;;;;4989938;28;20462;-70
2022/05/04 04:53:33;;;;;;;12.63;3.10;;;8.30;99.90;;;;;;4994489;28;20049;-70
2022/05/04 04:55:59;;;;;;;18.85;3.75;;;8.80;99.90;;;;;;4990573;28;20045;-70
2022/05/04 04:58:25;;;;;;;21.42;3.20;;;9.00;99.90;;;;;;4993357;28;20056;-70
2022/05/04 05:00:51;;;;;;;25.13;4.07;;;9.30;99.90;;;;;;4976607;28;20081;-70
2022/05/04 05:03:17;;;;;;;20.02;3.72;;;9.60;99.90;;;;;;4990314;28;21014;-70
2022/05/04 05:05:43;;;;;;;32.53;4.45;;;9.80;99.90;;;;;;4972456;28;20054;-70
2022/05/04 05:08:10;;;;;;;33.13;5.05;;;10.70;99.90;;;;;;4972839;28;20150;-70
2022/05/04 05:10:37;;;;;;;26.15;4.85;;;10.20;99.90;;;;;;4990027;28;20731;-70
2022/05/04 05:13:03;;;;;;;56.85;6.50;;;10.30;99.90;;;;;;4987341;28;20112;-70
2022/05/04 05:18:13;;;;;;;20.58;4.45;;;10.90;99.90;;;;;;4989874;28;20060;-70
2022/05/04 05:20:39;;;;;;;23.08;4.47;;;10.70;99.90;;;;;;4988462;28;20050;-70
2022/05/04 05:23:05;;;;;;;15.23;3.88;;;10.60;99.90;;;;;;4971185;28;20065;-70
2022/05/04 05:25:32;;;;;;;22.90;5.63;;;10.20;99.90;;;;;;4990760;28;20093;-70
2022/05/04 05:27:58;;;;;;;15.95;3.13;;;11.80;99.90;;;;;;4992342;28;20128;-70
2022/05/04 05:30:25;;;;;;;23.58;4.35;;;11.90;99.90;;;;;;4994559;28;20053;-70
2022/05/04 05:32:51;;;;;;;30.52;5.07;;;11.70;99.90;;;;;;4988365;28;20148;-70
2022/05/04 05:35:17;;;;;;;27.85;4.50;;;12.20;99.90;;;;;;4991408;28;20308;-70
2022/05/04 05:37:43;;;;;;;14.32;3.10;;;12.40;99.90;;;;;;4989489;28;20141;-70
2022/05/04 05:40:09;;;;;;;62.63;6.65;;;11.60;99.90;;;;;;4995222;28;20050;-70
2022/05/04 05:42:35;;;;;;;37.92;5.25;;;11.40;99.90;;;;;;4989687;28;21011;-70
2022/05/04 05:45:01;;;;;;;24.55;3.65;;;11.30;99.90;;;;;;4985645;28;20042;-70
2022/05/04 05:47:27;;;;;;;19.45;3.60;;;10.80;99.90;;;;;;4970967;28;20088;-70
2022/05/04 05:49:53;;;;;;;13.35;3.20;;;11.10;99.90;;;;;;4988186;28;20148;-70
2022/05/04 05:52:19;;;;;;;27.63;4.03;;;10.80;99.90;;;;;;4990197;28;20540;-70
2022/05/04 05:54:45;;;;;;;17.10;3.25;;;11.00;99.90;;;;;;4995360;28;20529;-70
2022/05/04 05:57:10;;;;;;;51.00;5.50;;;10.90;99.90;;;;;;4989040;28;20092;-70
2022/05/04 05:59:36;;;;;;;20.42;3.25;;;11.10;99.90;;;;;;4975075;28;20046;-70
2022/05/04 06:02:02;;;;;;;25.02;5.20;;;10.80;99.90;;;;;;4989014;28;20046;-70
2022/05/04 06:04:28;;;;;;;39.97;5.05;;;10.70;99.90;;;;;;4989778;28;20041;-70
2022/05/04 06:06:54;;;;;;;14.63;3.25;;;11.10;99.90;;;;;;4975115;28;20061;-70
2022/05/04 06:09:20;;;;;;;16.13;3.05;;;10.90;99.90;;;;;;4987734;28;20399;-70
2022/05/04 06:11:45;;;;;;;11.27;3.05;;;11.10;99.90;;;;;;4970862;28;20053;-70
2022/05/04 06:14:11;;;;;;;11.48;2.28;;;10.90;99.90;;;;;;4991293;28;20053;-70
2022/05/04 06:16:37;;;;;;;15.27;3.50;;;10.70;99.90;;;;;;4991055;28;20045;-70
2022/05/04 06:19:04;;;;;;;13.02;2.95;;;11.00;99.90;;;;;;4975138;28;20064;-70
2022/05/04 06:21:30;;;;;;;9.05;2.42;;;10.90;99.90;;;;;;4973301;28;20096;-70
2022/05/04 06:23:55;;;;;;;14.40;2.42;;;10.50;99.90;;;;;;4989494;28;20072;-70
2022/05/04 06:26:23;;;;;;;31.27;4.75;;;10.70;99.90;;;;;;4996483;28;20792;-70
2022/05/04 06:28:49;;;;;;;21.75;3.13;;;11.60;99.90;;;;;;4970403;28;20046;-70
2022/05/04 06:34:11;;;;;;;9.95;2.40;;;11.70;99.90;;;;;;4969519;28;20140;-70
2022/05/04 06:36:41;;;;;;;16.73;2.85;;;11.40;99.90;;;;;;4989211;28;20564;-70
2022/05/04 06:39:08;;;;;;;16.85;2.78;;;12.30;99.90;;;;;;4974659;28;20645;-70
2022/05/04 06:41:36;;;;;;;9.27;2.30;;;13.00;99.90;;;;;;4989809;28;20767;-70
2022/05/04 06:44:06;;;;;;;10.60;2.40;;;13.30;99.90;;;;;;4990015;28;20334;-70
2022/05/04 06:46:31;;;;;;;10.10;2.42;;;13.20;99.90;;;;;;4992049;28;20045;-70
2022/05/04 06:48:57;;;;;;;18.17;2.78;;;13.60;99.90;;;;;;4988971;28;20219;-70
2022/05/04 06:51:23;;;;;;;14.57;3.13;;;13.40;99.90;;;;;;4992400;28;20396;-70
2022/05/04 06:53:49;;;;;;;9.93;2.45;;;13.50;99.90;;;;;;4985129;28;20050;-70
2022/05/04 06:56:15;;;;;;;14.18;2.92;;;13.70;99.90;;;;;;4987159;28;20046;-71
2022/05/04 06:58:41;;;;;;;7.65;2.60;;;13.60;99.90;;;;;;4987542;28;20046;-70
2022/05/04 07:01:08;;;;;;;14.18;2.88;;;13.90;99.90;;;;;;4968053;28;20052;-70
2022/05/04 07:03:34;;;;;;;9.50;2.65;;;13.40;99.60;;;;;;4986363;28;20088;-71
2022/05/04 07:05:59;;;;;;;11.93;2.72;;;13.90;99.90;;;;;;4971522;28;20943;-70
2022/05/04 07:08:25;;;;;;;10.60;2.40;;;14.20;99.90;;;;;;4994124;28;20046;-70
2022/05/04 07:10:51;;;;;;;12.98;2.80;;;13.90;97.20;;;;;;4973090;28;20088;-70
2022/05/04 07:13:17;;;;;;;10.55;2.63;;;14.20;99.70;;;;;;4955961;28;20049;-70
2022/05/04 07:15:43;;;;;;;11.77;2.67;;;14.60;99.90;;;;;;4987008;28;20132;-71
2022/05/04 07:18:09;;;;;;;9.70;2.95;;;14.70;99.90;;;;;;4987609;28;20054;-70
2022/05/04 07:20:35;;;;;;;9.50;2.42;;;14.70;90.10;;;;;;4990887;28;20111;-71
2022/05/04 07:23:01;;;;;;;12.75;2.90;;;14.70;97.80;;;;;;4988532;28;20049;-70
2022/05/04 07:25:26;;;;;;;12.70;2.72;;;15.30;99.90;;;;;;4994986;28;20121;-70
2022/05/04 07:27:52;;;;;;;8.52;2.60;;;15.00;94.20;;;;;;4978287;28;20522;-70
2022/05/04 07:30:18;;;;;;;14.40;2.60;;;14.90;97.90;;;;;;4970719;28;20472;-71
2022/05/04 07:32:44;;;;;;;10.32;2.38;;;15.10;95.10;;;;;;4988324;28;20218;-71
2022/05/04 07:35:10;;;;;;;21.55;2.92;;;15.10;92.70;;;;;;4988601;28;20049;-70
2022/05/04 07:37:36;;;;;;;168.57;10.90;;;15.30;96.10;;;;;;4989903;28;20410;-71
2022/05/04 07:42:54;;;;;;;35.25;4.05;;;14.70;78.60;;;;;;4970325;28;20503;-71
2022/05/04 07:45:20;;;;;;;21.70;3.25;;;14.50;92.80;;;;;;4971161;28;20056;-71
2022/05/04 07:47:46;;;;;;;14.38;2.53;;;14.90;94.30;;;;;;4968631;28;20583;-71
2022/05/04 07:50:12;;;;;;;42.50;4.53;;;15.00;94.00;;;;;;4988581;28;20061;-70
2022/05/04 07:52:39;;;;;;;22.50;3.38;;;14.90;98.40;;;;;;4985316;28;20045;-71
2022/05/04 07:55:05;;;;;;;22.83;2.88;;;14.70;97.00;;;;;;4966524;28;20913;-71
2022/05/04 07:57:32;;;;;;;20.38;2.90;;;14.70;98.40;;;;;;4991802;28;20041;-71
2022/05/04 08:05:34;;;;;;;10.90;2.30;;;15.20;93.50;;;;;;4956036;28;20484;-71
2022/05/04 08:08:00;;;;;;;9.38;2.38;;;15.30;90.30;;;;;;4957658;28;20625;-71
2022/05/04 08:10:27;;;;;;;10.55;2.35;;;15.40;85.40;;;;;;4972525;28;20132;-70
2022/05/04 08:12:53;;;;;;;13.50;3.08;;;15.70;87.40;;;;;;4981285;28;21081;-70
2022/05/04 08:15:19;;;;;;;12.43;2.60;;;15.50;92.60;;;;;;4986048;28;20407;-70
2022/05/04 08:17:45;;;;;;;10.27;2.60;;;15.50;89.60;;;;;;4983453;28;20088;-71
2022/05/04 08:20:11;;;;;;;11.35;2.60;;;15.10;86.50;;;;;;4983558;28;20072;-71
2022/05/04 08:22:37;;;;;;;11.00;2.85;;;15.30;89.20;;;;;;4982221;28;20048;-71
2022/05/04 08:25:03;;;;;;;12.27;2.85;;;15.00;84.00;;;;;;4969106;28;20053;-71
2022/05/04 08:27:31;;;;;;;18.50;3.00;;;13.40;78.70;;;;;;4990811;28;20046;-71
2022/05/04 08:29:58;;;;;;;24.05;3.75;;;14.00;91.10;;;;;;4987104;28;20094;-71
2022/05/04 08:32:30;;;;;;;15.93;2.85;;;14.20;92.40;;;;;;4970964;28;20069;-71
2022/05/04 08:34:59;;;;;;;13.48;3.08;;;14.20;87.90;;;;;;4984702;28;20046;-71
2022/05/04 08:37:29;;;;;;;11.15;2.53;;;14.10;94.60;;;;;;4952233;28;21331;-71
2022/05/04 08:39:55;;;;;;;10.82;2.92;;;14.50;96.70;;;;;;4983363;28;20057;-71
2022/05/04 08:42:21;;;;;;;10.95;2.80;;;14.70;95.90;;;;;;4986249;28;20042;-71
2022/05/04 08:44:52;;;;;;;12.35;2.97;;;15.10;96.60;;;;;;4970220;28;20042;-71
2022/05/04 08:47:21;;;;;;;12.85;3.05;;;15.60;99.90;;;;;;4950466;28;20054;-70
2022/05/04 08:49:48;;;;;;;12.93;2.55;;;16.10;94.90;;;;;;4970017;28;20689;-71
2022/05/04 08:52:14;;;;;;;10.43;2.92;;;16.70;88.60;;;;;;4971339;28;20054;-71
2022/05/04 08:54:42;;;;;;;11.02;2.95;;;16.60;79.80;;;;;;4985520;28;20043;-71
2022/05/04 08:57:08;;;;;;;14.38;2.72;;;16.20;86.30;;;;;;4973939;28;20057;-70
2022/05/04 08:59:34;;;;;;;11.38;2.75;;;16.50;85.30;;;;;;4970317;28;20108;-70
2022/05/04 09:02:00;;;;;;;13.10;2.97;;;16.50;84.20;;;;;;4985008;28;20451;-71
2022/05/04 09:04:26;;;;;;;9.80;2.88;;;16.30;84.30;;;;;;4986020;28;20188;-71
2022/05/04 09:06:51;;;;;;;9.48;2.85;;;15.50;79.10;;;;;;4969676;28;20507;-71
2022/05/04 09:09:17;;;;;;;7.75;2.85;;;15.60;81.30;;;;;;4987437;28;20061;-71
2022/05/04 09:11:45;;;;;;;12.90;2.60;;;15.70;90.30;;;;;;4988949;28;20491;-70
2022/05/04 09:14:13;;;;;;;15.45;3.40;;;16.20;90.70;;;;;;4966316;28;20065;-70
2022/05/04 09:16:40;;;;;;;9.25;2.90;;;16.30;89.50;;;;;;4983238;28;20491;-71
2022/05/04 09:19:08;;;;;;;16.50;3.80;;;15.60;86.30;;;;;;4963074;28;20059;-70
2022/05/04 09:21:34;;;;;;;12.73;3.38;;;15.90;86.90;;;;;;4966770;28;20046;-71
2022/05/04 09:24:00;;;;;;;10.48;3.47;;;16.20;82.10;;;;;;4979778;28;20490;-71
2022/05/04 09:26:26;;;;;;;12.45;3.78;;;15.50;90.50;;;;;;4986472;28;20069;-70
2022/05/04 09:28:58;;;;;;;17.73;3.55;;;16.10;94.50;;;;;;4974495;28;20050;-71
2022/05/04 09:31:25;;;;;;;14.73;3.47;;;16.10;84.50;;;;;;4987055;28;20099;-71
2022/05/04 09:34:06;;;;;;;9.75;2.97;;;16.40;80.10;;;;;;4990444;28;20053;-71
2022/05/04 09:36:33;;;;;;;9.05;3.42;;;16.00;72.10;;;;;;4991577;28;20052;-71
2022/05/04 09:47:21;;;;;;;22.23;4.07;;;16.20;86.00;;;;;;4965242;28;20085;-71
2022/05/04 09:49:48;;;;;;;11.27;3.70;;;16.80;82.10;;;;;;4990536;28;20042;-71
2022/05/04 09:52:16;;;;;;;16.42;3.97;;;16.80;76.00;;;;;;4992674;28;20055;-71
2022/05/04 09:54:44;;;;;;;12.95;3.85;;;16.80;82.00;;;;;;4988931;28;20057;-71
2022/05/04 09:57:10;;;;;;;8.82;3.38;;;16.40;71.90;;;;;;4976082;28;20052;-71
2022/05/04 09:59:36;;;;;;;11.90;3.47;;;15.50;72.40;;;;;;4988036;28;20050;-71
2022/05/04 10:02:04;;;;;;;25.80;4.78;;;14.60;75.00;;;;;;4975371;28;20058;-71
2022/05/04 10:04:34;;;;;;;19.58;3.75;;;15.10;74.40;;;;;;4970748;28;20061;-71
2022/05/04 10:07:01;;;;;;;16.38;4.43;;;14.70;86.30;;;;;;4990238;28;20060;-71
2022/05/04 10:09:27;;;;;;;22.98;4.50;;;15.70;83.00;;;;;;4973124;28;20057;-71
2022/05/04 10:11:59;;;;;;;14.70;4.50;;;16.00;92.90;;;;;;4989089;28;20068;-70
2022/05/04 10:14:27;;;;;;;13.40;4.53;;;15.80;94.30;;;;;;4991978;28;20578;-71
2022/05/04 10:16:55;;;;;;;23.67;4.20;;;15.90;82.00;;;;;;4974742;28;20673;-71
2022/05/04 10:19:44;;;;;;;17.05;4.13;;;16.10;79.30;;;;;;4990792;28;20672;-71
2022/05/04 10:22:14;;;;;;;11.45;4.28;;;15.90;78.30;;;;;;4986985;28;20060;-71
2022/05/04 10:24:42;;;;;;;13.80;4.28;;;14.00;71.40;;;;;;4970929;28;20089;-70
2022/05/04 10:27:39;;;;;;;9.73;3.90;;;14.90;98.10;;;;;;4986399;28;20053;-71
2022/05/04 10:32:55;;;;;;;14.80;4.13;;;15.00;90.30;;;;;;4988955;28;20050;-71
2022/05/04 10:35:34;;;;;;;11.88;4.07;;;15.80;93.60;;;;;;4988057;28;20048;-71
2022/05/04 10:37:59;;;;;;;9.05;3.53;;;16.50;85.90;;;;;;4988094;28;20057;-71
2022/05/04 10:40:26;;;;;;;13.55;3.55;;;16.10;71.50;;;;;;4968105;28;20046;-71
2022/05/04 10:42:57;;;;;;;11.70;3.97;;;15.70;74.10;;;;;;4988131;28;20038;-71
2022/05/04 10:45:28;;;;;;;12.80;4.25;;;15.90;76.30;;;;;;4988692;28;20299;-71
2022/05/04 10:48:10;;;;;;;10.52;3.78;;;16.60;75.50;;;;;;4988821;28;20132;-71
2022/05/04 10:51:03;;;;;;;12.18;4.20;;;16.80;75.30;;;;;;4985772;28;20131;-71
2022/05/04 10:53:29;;;;;;;12.32;4.70;;;17.50;90.00;;;;;;4982351;28;20041;-71
2022/05/04 10:56:01;;;;;;;12.10;4.25;;;17.80;91.70;;;;;;4989026;28;20048;-71
2022/05/04 10:58:38;;;;;;;10.85;3.78;;;17.90;79.00;;;;;;4987811;28;20046;-72
2022/05/04 11:01:34;;;;;;;12.57;4.55;;;16.40;63.00;;;;;;4967047;28;20054;-71
2022/05/04 11:04:13;;;;;;;13.00;4.32;;;16.30;71.30;;;;;;4968875;28;20038;-71
2022/05/04 11:06:58;;;;;;;10.25;4.47;;;15.80;70.30;;;;;;4967549;28;20589;-71
2022/05/04 11:09:26;;;;;;;10.90;4.53;;;16.30;74.70;;;;;;4986893;28;20057;-71
2022/05/04 11:11:56;;;;;;;10.40;3.90;;;16.00;67.10;;;;;;4971885;28;20053;-71
2022/05/04 11:14:23;;;;;;;24.63;5.05;;;15.20;65.80;;;;;;4987641;28;20053;-71
2022/05/04 11:16:53;;;;;;;23.80;4.97;;;15.80;71.60;;;;;;4987951;28;20418;-71
2022/05/04 11:19:22;;;;;;;26.55;4.97;;;16.10;71.60;;;;;;4990024;28;20065;-71
2022/05/04 11:21:48;;;;;;;19.05;4.97;;;16.40;77.30;;;;;;4989037;28;20053;-71
2022/05/04 11:24:15;;;;;;;12.15;4.32;;;16.50;77.40;;;;;;4970754;28;20053;-71
2022/05/04 11:26:45;;;;;;;10.40;4.53;;;16.20;74.70;;;;;;4971047;28;20045;-71
2022/05/04 11:29:14;;;;;;;9.27;3.80;;;17.00;72.00;;;;;;4969692;28;20046;-71
2022/05/04 11:31:54;;;;;;;11.05;4.10;;;16.50;68.90;;;;;;4989494;28;20057;-71
2022/05/04 11:34:21;;;;;;;10.65;4.30;;;17.10;68.80;;;;;;4972254;28;20092;-72
2022/05/04 11:36:50;;;;;;;15.80;4.25;;;16.10;65.10;;;;;;4972033;28;20058;-71
2022/05/04 11:39:18;;;;;;;8.73;3.63;;;16.00;67.30;;;;;;4988297;28;20085;-72
2022/05/04 11:41:48;;;;;;;39.22;6.47;;;15.40;66.10;;;;;;4988128;28;20157;-72
2022/05/04 11:44:15;;;;;;;24.63;5.30;;;16.50;68.60;;;;;;4973543;28;20140;-71
2022/05/04 11:46:44;;;;;;;11.63;4.28;;;16.70;67.40;;;;;;4988134;28;20042;-71
2022/05/04 11:49:11;;;;;;;11.57;3.80;;;17.30;70.10;;;;;;4965389;28;20073;-71
2022/05/04 11:51:37;;;;;;;12.88;4.15;;;17.40;69.10;;;;;;4992339;28;20048;-72
2022/05/04 11:54:04;;;;;;;18.40;4.38;;;17.30;70.60;;;;;;4990754;28;20136;-71
2022/05/04 11:56:30;;;;;;;21.67;4.43;;;17.70;72.80;;;;;;4990108;28;20061;-71
2022/05/04 11:58:55;;;;;;;19.17;4.25;;;17.60;68.70;;;;;;4990736;28;20084;-71
2022/05/04 12:01:21;;;;;;;21.38;4.72;;;17.40;68.40;;;;;;4986437;28;20517;-71
2022/05/04 12:03:48;;;;;;;22.40;4.35;;;17.10;67.90;;;;;;4984649;28;20092;-71
2022/05/04 12:06:14;;;;;;;18.80;4.38;;;17.50;66.60;;;;;;4963950;28;20058;-72
2022/05/04 12:08:41;;;;;;;14.90;4.47;;;17.40;65.20;;;;;;4955593;28;22711;-71
2022/05/04 12:11:08;;;;;;;16.45;4.00;;;17.40;67.50;;;;;;4992050;28;20566;-71
2022/05/04 12:13:39;;;;;;;33.13;5.50;;;17.40;68.60;;;;;;4969639;28;20060;-71
2022/05/04 12:16:07;;;;;;;14.20;4.20;;;17.70;69.00;;;;;;4987182;28;20179;-71
2022/05/04 12:18:35;;;;;;;15.95;4.22;;;18.10;71.00;;;;;;4986440;28;20083;-71
2022/05/04 12:21:09;;;;;;;14.07;3.97;;;18.20;65.80;;;;;;4986401;28;20108;-72
2022/05/04 12:23:36;;;;;;;13.55;4.15;;;17.90;63.20;;;;;;4986864;28;20622;-71
2022/05/04 12:26:03;;;;;;;17.75;4.40;;;17.80;69.30;;;;;;4969693;28;20111;-72
2022/05/04 12:28:29;;;;;;;12.07;4.28;;;17.80;64.80;;;;;;4985285;28;20438;-72
2022/05/04 12:33:41;;;;;;;10.90;3.40;;;16.20;64.50;;;;;;4991520;28;20058;-72
2022/05/04 12:36:09;;;;;;;8.55;3.30;;;17.70;65.30;;;;;;4990128;28;20045;-72
2022/05/04 12:38:36;;;;;;;10.70;3.85;;;17.90;63.30;;;;;;4988375;28;20058;-72
2022/05/04 12:41:04;;;;;;;29.20;3.72;;;16.70;64.40;;;;;;4988838;28;20487;-72
2022/05/04 12:43:35;;;;;;;16.15;3.65;;;17.80;64.80;;;;;;4983673;28;20046;-71
2022/05/04 12:46:02;;;;;;;24.67;4.35;;;18.40;66.70;;;;;;4987901;28;20745;-71
2022/05/04 12:48:28;;;;;;;26.95;4.45;;;18.80;64.50;;;;;;4986142;28;20480;-71
2022/05/04 12:50:56;;;;;;;16.02;4.32;;;19.20;64.00;;;;;;4966744;28;20108;-71
2022/05/04 12:53:26;;;;;;;12.43;4.07;;;19.20;65.00;;;;;;4983685;28;20442;-72
2022/05/04 12:58:36;;;;;;;18.10;3.58;;;18.60;64.80;;;;;;4985384;28;20054;-72
2022/05/04 13:01:05;;;;;;;8.50;2.97;;;18.60;64.70;;;;;;4983378;28;20061;-72
2022/05/04 13:03:31;;;;;;;10.88;3.45;;;18.60;59.80;;;;;;4989074;28;20926;-72
2022/05/04 13:05:57;;;;;;;8.20;2.70;;;18.00;61.80;;;;;;4989549;28;20045;-72
2022/05/04 13:08:23;;;;;;;12.20;3.35;;;17.70;59.40;;;;;;4989370;28;20058;-72
2022/05/04 13:10:50;;;;;;;11.70;3.25;;;18.20;64.30;;;;;;4992198;28;20161;-72
2022/05/04 13:13:20;;;;;;;10.23;3.17;;;19.20;65.20;;;;;;4974346;28;20057;-71
2022/05/04 13:15:52;;;;;;;12.13;3.72;;;18.70;62.50;;;;;;4988052;28;20046;-72
2022/05/04 13:18:19;;;;;;;16.38;3.67;;;18.90;62.60;;;;;;4989195;28;20046;-71
2022/05/04 13:20:45;;;;;;;16.08;3.42;;;19.10;63.30;;;;;;4993975;28;20062;-72
2022/05/04 13:23:11;;;;;;;28.48;4.30;;;18.70;56.00;;;;;;4989125;28;20065;-71